createdAt,value
2023-03-17T00:01:25.060Z,5.56
2023-03-17T00:03:53.117Z,5.53
2023-03-17T00:06:28.476Z,5.58
2023-03-17T00:08:57.383Z,5.59
2023-03-17T00:11:27.416Z,5.61
2023-03-17T00:13:56.642Z,5.63
2023-03-17T00:16:28.099Z,5.63
2023-03-17T00:18:56.725Z,5.65
2023-03-17T00:21:29.144Z,5.63
2023-03-17T00:23:57.767Z,5.64
2023-03-17T00:26:26.462Z,5.73
2023-03-17T00:28:56.268Z,5.77
2023-03-17T00:31:27.253Z,5.74
2023-03-17T00:33:56.019Z,5.77
2023-03-17T00:36:28.091Z,5.65
2023-03-17T00:38:56.372Z,5.67
2023-03-17T00:41:27.131Z,5.66
2023-03-17T00:43:57.214Z,5.61
2023-03-17T00:46:28.850Z,5.55
2023-03-17T00:48:58.399Z,5.68
2023-03-17T00:51:26.283Z,5.62
2023-03-17T00:53:56.563Z,5.69
2023-03-17T00:56:24.680Z,5.66
2023-03-17T00:58:52.809Z,5.63
2023-03-17T01:01:22.105Z,5.49
2023-03-17T01:03:49.958Z,5.51
2023-03-17T01:06:18.134Z,5.47
2023-03-17T01:08:46.538Z,5.43
2023-03-17T01:11:18.678Z,5.38
2023-03-17T01:13:48.677Z,5.40
2023-03-17T01:16:17.047Z,5.31
2023-03-17T01:18:46.550Z,5.34
2023-03-17T01:21:15.355Z,5.40
2023-03-17T01:23:43.615Z,5.41
2023-03-17T01:26:11.752Z,5.36
2023-03-17T01:28:39.776Z,5.48
2023-03-17T01:31:07.700Z,5.41
2023-03-17T01:33:35.607Z,5.49
2023-03-17T01:36:05.316Z,5.53
2023-03-17T01:38:33.286Z,5.56
2023-03-17T01:41:01.521Z,5.51
2023-03-17T01:43:31.051Z,5.49
2023-03-17T01:46:21.770Z,5.75
2023-03-17T01:48:57.661Z,5.72
2023-03-17T01:51:32.385Z,5.63
2023-03-17T01:54:02.520Z,5.54
2023-03-17T01:56:31.491Z,5.52
2023-03-17T01:59:03.864Z,5.37
2023-03-17T02:01:38.631Z,5.38
2023-03-17T02:04:07.352Z,5.40
2023-03-17T02:06:42.164Z,5.50
2023-03-17T02:09:15.768Z,5.47
2023-03-17T02:11:45.418Z,5.48
2023-03-17T02:14:13.540Z,5.48
2023-03-17T02:16:42.001Z,5.53
2023-03-17T02:19:09.947Z,5.59
2023-03-17T02:21:42.728Z,5.58
2023-03-17T02:24:20.383Z,5.45
2023-03-17T02:26:50.626Z,5.53
2023-03-17T02:29:20.174Z,5.48
2023-03-17T02:31:48.090Z,5.55
2023-03-17T02:34:16.928Z,5.47
2023-03-17T02:36:46.600Z,5.55
2023-03-17T02:39:16.420Z,5.53
2023-03-17T02:41:44.314Z,5.57
2023-03-17T02:44:12.722Z,5.61
2023-03-17T02:46:40.604Z,5.65
2023-03-17T02:49:09.040Z,5.63
2023-03-17T02:51:37.116Z,5.58
2023-03-17T02:54:06.373Z,5.54
2023-03-17T02:56:34.418Z,5.41
2023-03-17T02:59:02.326Z,5.35
2023-03-17T03:01:30.905Z,5.32
2023-03-17T03:03:59.157Z,5.22
2023-03-17T03:06:27.324Z,5.30
2023-03-17T03:08:55.279Z,5.34
2023-03-17T03:11:24.481Z,5.26
2023-03-17T03:13:52.464Z,5.25
2023-03-17T03:16:20.938Z,5.25
2023-03-17T03:18:48.838Z,5.20
2023-03-17T03:21:16.659Z,5.18
2023-03-17T03:23:44.526Z,5.20
2023-03-17T03:26:12.916Z,5.18
2023-03-17T03:28:42.178Z,5.18
2023-03-17T03:31:10.330Z,5.18
2023-03-17T03:33:38.459Z,5.16
2023-03-17T03:36:07.737Z,5.20
2023-03-17T03:38:35.739Z,5.18
2023-03-17T03:41:03.790Z,5.16
2023-03-17T03:43:31.576Z,5.14
2023-03-17T03:46:00.952Z,5.17
2023-03-17T03:48:29.008Z,5.14
2023-03-17T03:50:58.017Z,5.14
2023-03-17T03:53:26.322Z,5.08
2023-03-17T03:55:54.498Z,5.13
2023-03-17T03:58:22.742Z,5.17
2023-03-17T04:00:51.167Z,5.24
2023-03-17T04:03:20.644Z,5.12
2023-03-17T04:05:48.424Z,5.14
2023-03-17T04:08:16.456Z,5.07
2023-03-17T04:10:44.570Z,5.08
2023-03-17T04:13:12.881Z,5.01
2023-03-17T04:15:40.864Z,5.02
2023-03-17T04:18:09.727Z,4.98
2023-03-17T04:20:39.485Z,5.01
2023-03-17T04:23:07.903Z,5.00
2023-03-17T04:25:36.654Z,5.07
2023-03-17T04:28:04.942Z,5.00
2023-03-17T04:30:33.323Z,5.01
2023-03-17T04:33:01.298Z,4.98
2023-03-17T04:35:29.239Z,4.97
2023-03-17T04:37:58.481Z,4.91
2023-03-17T04:40:27.625Z,4.88
2023-03-17T04:42:55.465Z,4.93
2023-03-17T04:45:23.293Z,4.95
2023-03-17T04:47:51.160Z,4.89
2023-03-17T04:50:19.093Z,4.87
2023-03-17T04:52:46.935Z,4.89
2023-03-17T04:55:16.527Z,4.91
2023-03-17T04:57:44.750Z,4.91
2023-03-17T05:00:15.389Z,4.93
2023-03-17T05:02:43.317Z,4.87
2023-03-17T05:05:12.243Z,4.83
2023-03-17T05:07:40.223Z,5.05
2023-03-17T05:10:09.386Z,5.04
2023-03-17T05:12:38.672Z,5.00
2023-03-17T05:15:07.787Z,5.03
2023-03-17T05:17:35.595Z,5.03
2023-03-17T05:20:04.310Z,5.01
2023-03-17T05:22:32.482Z,5.00
2023-03-17T05:25:00.464Z,4.97
2023-03-17T05:27:28.306Z,4.92
2023-03-17T05:29:57.724Z,4.91
2023-03-17T05:32:25.801Z,4.91
2023-03-17T05:34:53.934Z,4.93
2023-03-17T05:37:22.635Z,4.84
2023-03-17T05:39:50.981Z,4.89
2023-03-17T05:42:18.889Z,4.86
2023-03-17T05:44:46.787Z,4.88
2023-03-17T05:47:16.731Z,4.96
2023-03-17T05:49:44.602Z,4.84
2023-03-17T05:52:12.467Z,4.94
2023-03-17T05:54:40.590Z,4.87
2023-03-17T05:57:08.779Z,4.91
2023-03-17T05:59:36.994Z,4.90
2023-03-17T06:02:04.989Z,4.90
2023-03-17T06:04:34.221Z,4.89
2023-03-17T06:07:02.084Z,4.96
2023-03-17T06:09:30.052Z,4.97
2023-03-17T06:11:58.043Z,5.06
2023-03-17T06:14:27.158Z,5.07
2023-03-17T06:16:55.522Z,5.18
2023-03-17T06:19:23.564Z,5.24
2023-03-17T06:21:52.920Z,5.33
2023-03-17T06:24:21.069Z,5.50
2023-03-17T06:26:49.115Z,5.49
2023-03-17T06:29:17.053Z,5.58
2023-03-17T06:31:50.411Z,5.72
2023-03-17T06:34:18.435Z,5.91
2023-03-17T06:36:46.561Z,6.04
2023-03-17T06:39:16.672Z,6.04
2023-03-17T06:41:44.747Z,6.02
2023-03-17T06:44:13.091Z,6.18
2023-03-17T06:46:41.058Z,6.30
2023-03-17T06:49:09.358Z,6.37
2023-03-17T06:51:37.350Z,6.51
2023-03-17T06:54:06.530Z,6.55
2023-03-17T06:56:35.843Z,6.45
2023-03-17T06:59:04.994Z,6.69
2023-03-17T07:01:32.871Z,6.73
2023-03-17T07:04:01.040Z,6.83
2023-03-17T07:06:29.586Z,6.69
2023-03-17T07:08:57.599Z,6.56
2023-03-17T07:11:26.248Z,6.59
2023-03-17T07:13:56.311Z,6.71
2023-03-17T07:16:24.275Z,6.76
2023-03-17T07:18:52.460Z,6.91
2023-03-17T07:21:20.475Z,7.02
2023-03-17T07:23:48.321Z,7.13
2023-03-17T07:26:16.251Z,7.14
2023-03-17T07:28:44.639Z,7.29
2023-03-17T07:31:14.927Z,7.29
2023-03-17T07:33:43.480Z,7.12
2023-03-17T07:36:11.686Z,7.24
2023-03-17T07:38:39.862Z,7.36
2023-03-17T07:41:10.091Z,7.61
2023-03-17T07:43:39.073Z,7.89
2023-03-17T07:46:07.401Z,7.85
2023-03-17T07:48:40.758Z,7.87
2023-03-17T07:51:14.023Z,7.83
2023-03-17T07:53:42.300Z,7.84
2023-03-17T07:56:10.289Z,7.92
2023-03-17T07:58:38.182Z,8.30
2023-03-17T08:01:06.906Z,8.60
2023-03-17T08:03:38.160Z,8.85
2023-03-17T08:06:08.702Z,8.88
2023-03-17T08:08:36.960Z,9.09
2023-03-17T08:11:06.317Z,9.05
2023-03-17T08:13:35.002Z,8.99
2023-03-17T08:16:02.880Z,9.17
2023-03-17T08:18:31.011Z,9.11
2023-03-17T08:21:00.217Z,9.10
2023-03-17T08:23:28.006Z,9.18
2023-03-17T08:25:58.232Z,9.35
2023-03-17T08:28:27.116Z,9.64
2023-03-17T08:30:55.849Z,9.90
2023-03-17T08:33:23.765Z,9.73
2023-03-17T08:35:51.702Z,9.72
2023-03-17T08:38:20.941Z,9.49
2023-03-17T08:40:50.518Z,9.57
2023-03-17T08:43:18.723Z,9.66
2023-03-17T08:45:46.632Z,9.74
2023-03-17T08:48:15.313Z,9.83
2023-03-17T08:50:43.477Z,9.86
2023-03-17T08:53:11.898Z,10.21
2023-03-17T08:55:41.233Z,10.40
2023-03-17T08:58:09.497Z,10.52
2023-03-17T09:00:37.459Z,10.49
2023-03-17T09:03:05.747Z,10.64
2023-03-17T09:05:35.662Z,10.80
2023-03-17T09:08:06.048Z,10.92
2023-03-17T09:10:34.147Z,10.86
2023-03-17T09:13:04.567Z,10.96
2023-03-17T09:15:33.775Z,11.11
2023-03-17T09:18:03.264Z,11.36
2023-03-17T09:20:31.503Z,11.43
2023-03-17T09:23:00.354Z,11.43
2023-03-17T09:25:30.224Z,11.58
2023-03-17T09:27:58.726Z,11.60
2023-03-17T09:30:27.910Z,11.80
2023-03-17T09:32:55.943Z,11.57
2023-03-17T09:35:23.801Z,11.82
2023-03-17T09:37:51.637Z,11.83
2023-03-17T09:40:22.435Z,11.49
2023-03-17T09:43:03.065Z,11.81
2023-03-17T09:45:37.661Z,11.86
2023-03-17T09:48:33.601Z,11.98
2023-03-17T09:51:04.834Z,12.13
2023-03-17T09:53:36.151Z,12.17
2023-03-17T09:56:09.687Z,12.33
2023-03-17T09:58:39.408Z,12.56
2023-03-17T10:01:12.764Z,12.81
2023-03-17T10:03:41.162Z,12.99
2023-03-17T10:06:18.775Z,12.86
2023-03-17T10:08:52.499Z,13.06
2023-03-17T10:11:29.457Z,13.03
2023-03-17T10:14:03.325Z,13.24
2023-03-17T10:16:40.356Z,13.25
2023-03-17T10:19:19.678Z,13.35
2023-03-17T10:21:52.579Z,13.70
2023-03-17T10:24:21.984Z,13.62
2023-03-17T10:26:51.590Z,13.51
2023-03-17T10:29:22.791Z,13.64
2023-03-17T10:31:55.178Z,13.86
2023-03-17T10:34:27.671Z,13.94
2023-03-17T10:37:00.683Z,14.14
2023-03-17T10:39:32.532Z,14.55
2023-03-17T10:42:08.647Z,14.36
2023-03-17T10:44:44.824Z,14.50
2023-03-17T10:47:31.569Z,14.41
2023-03-17T10:50:02.751Z,14.58
2023-03-17T10:52:33.292Z,14.58
2023-03-17T10:55:03.711Z,14.87
2023-03-17T10:57:31.596Z,14.89
2023-03-17T11:00:05.081Z,15.36
2023-03-17T11:02:38.673Z,15.10
2023-03-17T11:05:19.439Z,15.38
2023-03-17T11:07:47.762Z,15.32
2023-03-17T11:10:20.322Z,15.64
2023-03-17T11:12:51.248Z,15.60
2023-03-17T11:15:20.324Z,15.81
2023-03-17T11:17:55.680Z,16.12
2023-03-17T11:20:45.700Z,15.91
2023-03-17T11:23:23.992Z,15.71
2023-03-17T11:26:03.062Z,15.75
2023-03-17T11:28:36.911Z,15.79
2023-03-17T11:31:13.069Z,15.71
2023-03-17T11:33:53.172Z,15.89
2023-03-17T11:36:37.221Z,15.98
2023-03-17T11:39:13.623Z,15.89
2023-03-17T11:41:49.996Z,15.74
2023-03-17T11:44:41.673Z,15.78
2023-03-17T11:47:21.014Z,15.81
2023-03-17T11:50:15.576Z,15.57
2023-03-17T11:52:56.288Z,15.69
2023-03-17T11:55:27.026Z,15.68
2023-03-17T11:57:58.452Z,15.72
2023-03-17T12:00:33.678Z,15.79
2023-03-17T12:03:14.605Z,15.76
2023-03-17T12:05:45.880Z,15.99
2023-03-17T12:08:21.877Z,16.16
2023-03-17T12:10:54.174Z,16.18
2023-03-17T12:13:26.557Z,16.44
2023-03-17T12:15:58.205Z,16.56
2023-03-17T12:18:32.633Z,16.66
2023-03-17T12:21:08.588Z,16.74
2023-03-17T12:23:42.159Z,16.87
2023-03-17T12:26:13.863Z,16.98
2023-03-17T12:28:47.571Z,17.10
2023-03-17T12:31:20.999Z,17.05
2023-03-17T12:33:54.933Z,17.31
2023-03-17T12:36:25.885Z,17.48
2023-03-17T12:38:57.907Z,17.43
2023-03-17T12:41:40.865Z,17.21
2023-03-17T12:44:21.181Z,17.05
2023-03-17T12:47:41.500Z,17.27
2023-03-17T12:50:34.338Z,17.36
2023-03-17T12:53:24.476Z,17.23
2023-03-17T12:55:55.669Z,17.07
2023-03-17T12:58:30.894Z,17.01
2023-03-17T13:01:08.897Z,16.98
2023-03-17T13:03:46.780Z,16.95
2023-03-17T13:06:20.829Z,17.12
2023-03-17T13:08:52.121Z,17.06
2023-03-17T13:11:29.430Z,17.12
2023-03-17T13:14:12.257Z,16.96
2023-03-17T13:16:41.657Z,16.81
2023-03-17T13:19:20.023Z,16.58
2023-03-17T13:21:57.368Z,16.62
2023-03-17T13:24:47.238Z,16.64
2023-03-17T13:27:36.126Z,16.66
2023-03-17T13:30:37.699Z,16.51
2023-03-17T13:33:23.228Z,16.47
2023-03-17T13:36:10.761Z,16.47
2023-03-17T13:39:18.419Z,16.50
2023-03-17T13:41:59.278Z,16.50
2023-03-17T13:44:38.498Z,16.61
2023-03-17T13:47:28.927Z,16.59
2023-03-17T13:50:03.430Z,16.56
2023-03-17T13:52:34.415Z,16.60
2023-03-17T13:55:12.158Z,16.50
2023-03-17T13:57:40.749Z,16.46
2023-03-17T14:00:23.293Z,16.52
2023-03-17T14:03:00.014Z,16.58
2023-03-17T14:05:32.925Z,16.61
2023-03-17T14:08:03.807Z,16.47
2023-03-17T14:10:34.051Z,16.40
2023-03-17T14:13:08.966Z,16.39
2023-03-17T14:15:47.959Z,16.30
2023-03-17T14:18:19.183Z,16.15
2023-03-17T14:20:55.620Z,16.17
2023-03-17T14:23:24.010Z,16.22
2023-03-17T14:25:52.611Z,16.16
2023-03-17T14:28:26.381Z,16.12
2023-03-17T14:30:56.750Z,16.07
2023-03-17T14:33:27.217Z,16.05
2023-03-17T14:35:59.537Z,16.08
2023-03-17T14:38:30.779Z,16.04
2023-03-17T14:41:04.352Z,16.04
2023-03-17T14:43:32.681Z,15.95
2023-03-17T14:46:02.557Z,16.00
2023-03-17T14:48:34.798Z,15.82
2023-03-17T14:51:07.625Z,15.84
2023-03-17T14:53:37.268Z,15.85
2023-03-17T14:56:05.732Z,15.72
2023-03-17T14:58:38.806Z,15.79
2023-03-17T15:01:08.861Z,15.78
2023-03-17T15:03:40.288Z,15.82
2023-03-17T15:06:23.829Z,15.87
2023-03-17T15:08:52.630Z,15.79
2023-03-17T15:11:29.538Z,15.55
2023-03-17T15:14:07.213Z,15.42
2023-03-17T15:16:37.118Z,15.43
2023-03-17T15:19:08.851Z,15.36
2023-03-17T15:21:41.476Z,15.25
2023-03-17T15:24:32.986Z,15.19
2023-03-17T15:27:04.212Z,15.07
2023-03-17T15:29:32.195Z,15.13
2023-03-17T15:32:11.089Z,15.06
2023-03-17T15:34:39.053Z,15.01
2023-03-17T15:37:15.993Z,14.93
2023-03-17T15:39:44.085Z,14.97
2023-03-17T15:42:12.016Z,15.03
2023-03-17T15:44:40.610Z,14.96
2023-03-17T15:47:13.250Z,14.87
2023-03-17T15:49:41.417Z,14.87
2023-03-17T15:52:16.174Z,14.77
2023-03-17T15:54:44.944Z,14.78
2023-03-17T15:57:13.772Z,14.82
2023-03-17T15:59:42.003Z,14.70
2023-03-17T16:02:25.855Z,14.73
2023-03-17T16:04:54.180Z,14.66
2023-03-17T16:07:24.561Z,14.70
2023-03-17T16:09:52.478Z,14.64
2023-03-17T16:12:21.150Z,14.67
2023-03-17T16:14:49.206Z,14.69
2023-03-17T16:17:21.661Z,14.64
2023-03-17T16:19:50.233Z,14.50
2023-03-17T16:22:37.380Z,14.43
2023-03-17T16:25:12.960Z,14.46
2023-03-17T16:27:41.116Z,14.39
2023-03-17T16:30:17.015Z,14.29
2023-03-17T16:32:45.278Z,14.32
2023-03-17T16:35:17.936Z,14.29
2023-03-17T16:37:48.053Z,14.34
2023-03-17T16:40:23.757Z,14.39
2023-03-17T16:42:51.822Z,14.22
2023-03-17T16:45:26.443Z,14.20
2023-03-17T16:47:55.034Z,14.05
2023-03-17T16:50:25.601Z,14.13
2023-03-17T16:52:55.301Z,14.16
2023-03-17T16:55:25.295Z,14.16
2023-03-17T16:57:55.968Z,14.09
2023-03-17T17:00:26.419Z,14.06
2023-03-17T17:02:55.202Z,14.06
2023-03-17T17:05:25.377Z,13.91
2023-03-17T17:07:56.710Z,13.93
2023-03-17T17:10:27.160Z,13.83
2023-03-17T17:12:55.639Z,13.78
2023-03-17T17:15:24.170Z,13.69
2023-03-17T17:17:56.423Z,13.57
2023-03-17T17:20:28.892Z,13.56
2023-03-17T17:22:59.014Z,13.49
2023-03-17T17:25:28.065Z,13.28
2023-03-17T17:27:57.039Z,13.54
2023-03-17T17:30:28.288Z,13.66
2023-03-17T17:32:58.869Z,13.77
2023-03-17T17:35:31.245Z,13.75
2023-03-17T17:38:02.056Z,13.74
2023-03-17T17:40:31.194Z,13.78
2023-03-17T17:42:59.504Z,13.73
2023-03-17T17:45:27.494Z,13.66
2023-03-17T17:47:55.413Z,13.64
2023-03-17T17:50:26.481Z,13.65
2023-03-17T17:52:55.032Z,13.66
2023-03-17T17:55:24.308Z,13.55
2023-03-17T17:57:52.697Z,13.36
2023-03-17T18:00:21.600Z,13.45
2023-03-17T18:02:49.416Z,13.47
2023-03-17T18:05:17.876Z,13.48
2023-03-17T18:07:46.217Z,13.45
2023-03-17T18:10:18.436Z,13.35
2023-03-17T18:12:48.157Z,13.21
2023-03-17T18:15:16.859Z,13.07
2023-03-17T18:17:45.049Z,13.00
2023-03-17T18:20:15.008Z,12.92
2023-03-17T18:22:43.604Z,12.86
2023-03-17T18:25:14.255Z,12.71
2023-03-17T18:27:42.714Z,12.90
2023-03-17T18:30:15.126Z,13.07
2023-03-17T18:32:43.971Z,13.03
2023-03-17T18:35:15.784Z,13.06
2023-03-17T18:37:45.088Z,13.01
2023-03-17T18:40:17.249Z,12.97
2023-03-17T18:42:47.026Z,12.82
2023-03-17T18:45:17.050Z,12.84
2023-03-17T18:47:44.986Z,12.71
2023-03-17T18:50:15.886Z,12.63
2023-03-17T18:52:44.846Z,12.58
2023-03-17T18:55:14.160Z,12.69
2023-03-17T18:57:44.489Z,12.89
2023-03-17T19:00:14.614Z,12.88
2023-03-17T19:02:44.518Z,12.76
2023-03-17T19:05:13.161Z,12.79
2023-03-17T19:07:41.892Z,12.62
2023-03-17T19:10:12.040Z,12.59
2023-03-17T19:12:42.573Z,12.63
2023-03-17T19:15:12.478Z,12.56
2023-03-17T19:17:41.704Z,12.48
2023-03-17T19:20:13.340Z,12.44
2023-03-17T19:22:41.639Z,12.23
2023-03-17T19:25:11.330Z,12.20
2023-03-17T19:27:39.935Z,12.12
2023-03-17T19:30:10.194Z,12.04
2023-03-17T19:32:38.577Z,12.11
2023-03-17T19:35:08.295Z,11.86
2023-03-17T19:37:38.301Z,11.79
2023-03-17T19:40:08.162Z,11.60
2023-03-17T19:42:36.280Z,11.59
2023-03-17T19:45:04.904Z,11.66
2023-03-17T19:47:33.108Z,11.92
2023-03-17T19:50:02.210Z,11.89
2023-03-17T19:52:31.151Z,12.05
2023-03-17T19:55:00.472Z,12.21
2023-03-17T19:57:28.820Z,12.25
2023-03-17T19:59:57.376Z,12.24
2023-03-17T20:02:25.780Z,12.07
2023-03-17T20:04:54.267Z,11.99
2023-03-17T20:07:23.168Z,11.86
2023-03-17T20:09:51.202Z,11.80
2023-03-17T20:12:20.649Z,11.93
2023-03-17T20:14:49.065Z,11.87
2023-03-17T20:17:17.777Z,11.70
2023-03-17T20:19:46.165Z,11.54
2023-03-17T20:22:14.027Z,11.55
2023-03-17T20:24:42.435Z,11.73
2023-03-17T20:27:11.356Z,11.59
2023-03-17T20:29:40.973Z,11.55
2023-03-17T20:32:09.162Z,11.64
2023-03-17T20:34:37.704Z,11.59
2023-03-17T20:37:06.061Z,11.55
2023-03-17T20:39:34.050Z,11.76
2023-03-17T20:42:04.229Z,11.75
2023-03-17T20:44:32.193Z,11.43
2023-03-17T20:47:01.926Z,11.47
2023-03-17T20:49:30.518Z,11.44
2023-03-17T20:51:58.443Z,11.40
2023-03-17T20:54:26.352Z,11.19
2023-03-17T20:56:56.555Z,11.49
2023-03-17T20:59:26.117Z,11.45
2023-03-17T21:01:54.133Z,11.34
2023-03-17T21:04:24.623Z,11.35
2023-03-17T21:06:52.421Z,11.40
2023-03-17T21:09:20.321Z,11.35
2023-03-17T21:11:49.253Z,11.50
2023-03-17T21:14:17.326Z,11.23
2023-03-17T21:16:47.269Z,10.94
2023-03-17T21:19:17.186Z,10.97
2023-03-17T21:21:46.554Z,10.95
2023-03-17T21:24:26.522Z,10.83
2023-03-17T21:26:54.709Z,11.08
2023-03-17T21:29:23.586Z,11.09
2023-03-17T21:31:51.704Z,11.04
2023-03-17T21:34:19.912Z,11.08
2023-03-17T21:36:49.251Z,10.96
2023-03-17T21:39:17.657Z,10.76
2023-03-17T21:41:46.840Z,10.59
2023-03-17T21:44:15.905Z,10.63
2023-03-17T21:46:44.162Z,10.72
2023-03-17T21:49:13.254Z,10.80
2023-03-17T21:51:41.244Z,11.18
2023-03-17T21:54:10.632Z,11.20
2023-03-17T21:56:39.663Z,11.45
2023-03-17T21:59:10.842Z,11.81
2023-03-17T22:01:39.021Z,12.00
2023-03-17T22:04:07.421Z,12.17
2023-03-17T22:06:35.440Z,12.12
2023-03-17T22:09:04.374Z,12.31
2023-03-17T22:11:33.584Z,12.15
2023-03-17T22:14:01.837Z,12.34
2023-03-17T22:16:30.076Z,12.36
2023-03-17T22:18:58.010Z,12.46
2023-03-17T22:21:26.054Z,12.45
2023-03-17T22:23:53.875Z,12.53
2023-03-17T22:26:22.955Z,12.42
2023-03-17T22:28:52.238Z,12.32
2023-03-17T22:31:22.277Z,12.42
2023-03-17T22:33:52.590Z,12.42
2023-03-17T22:36:20.794Z,12.24
2023-03-17T22:38:49.123Z,12.27
2023-03-17T22:41:18.719Z,12.25
2023-03-17T22:43:47.327Z,12.24
2023-03-17T22:46:17.720Z,12.26
2023-03-17T22:48:46.723Z,12.29
2023-03-17T22:51:17.322Z,12.51
2023-03-17T22:53:46.098Z,12.47
2023-03-17T22:56:16.382Z,12.33
2023-03-17T22:58:45.072Z,12.10
2023-03-17T23:01:16.225Z,12.12
2023-03-17T23:03:45.999Z,12.02
2023-03-17T23:06:15.421Z,12.06
2023-03-17T23:08:45.689Z,12.20
2023-03-17T23:11:17.172Z,12.13
2023-03-17T23:13:45.845Z,12.30
2023-03-17T23:16:14.645Z,12.17
2023-03-17T23:18:46.095Z,12.03
2023-03-17T23:21:21.873Z,11.93
2023-03-17T23:23:49.768Z,11.45
2023-03-17T23:26:17.974Z,11.48
2023-03-17T23:28:46.355Z,11.44
2023-03-17T23:31:15.790Z,11.39
2023-03-17T23:33:44.115Z,11.32
2023-03-17T23:36:13.977Z,11.30
2023-03-17T23:38:43.986Z,11.49
2023-03-17T23:41:12.719Z,11.41
2023-03-17T23:43:41.491Z,11.44
2023-03-17T23:46:09.490Z,11.48
2023-03-17T23:48:37.999Z,11.55
2023-03-17T23:51:06.844Z,11.70
2023-03-17T23:53:34.730Z,11.66
2023-03-17T23:56:04.859Z,11.67
2023-03-17T23:58:33.228Z,11.54
